sensor_id;sensor_type;location;lat;lon;timestamp;pressure;altitude;pressure_sealevel;temperature;humidity
56070;BME280;41944;52.078;-0.058;2023-05-07T00:01:10;101094.70;;;14.96;100.00
56070;BME280;41944;52.078;-0.058;2023-05-07T00:03:37;101095.11;;;15.11;100.00
56070;BME280;41944;52.078;-0.058;2023-05-07T00:06:04;101101.95;;;14.92;100.00
56070;BME280;41944;52.078;-0.058;2023-05-07T00:08:31;101105.33;;;14.75;100.00
56070;BME280;41944;52.078;-0.058;2023-05-07T00:10:58;101111.68;;;14.57;100.00
56070;BME280;41944;52.078;-0.058;2023-05-07T00:13:24;101108.86;;;14.45;100.00
56070;BME280;41944;52.078;-0.058;2023-05-07T00:15:52;101107.22;;;14.32;100.00
56070;BME280;41944;52.078;-0.058;2023-05-07T00:18:19;101104.00;;;14.24;100.00
56070;BME280;41944;52.078;-0.058;2023-05-07T00:20:46;101102.28;;;14.22;100.00
56070;BME280;41944;52.078;-0.058;2023-05-07T00:23:13;101103.18;;;14.13;100.00
56070;BME280;41944;52.078;-0.058;2023-05-07T00:25:40;101105.60;;;14.06;100.00
56070;BME280;41944;52.078;-0.058;2023-05-07T00:28:07;101103.90;;;14.08;100.00
56070;BME280;41944;52.078;-0.058;2023-05-07T00:30:34;101099.51;;;14.15;100.00
56070;BME280;41944;52.078;-0.058;2023-05-07T00:33:01;101098.32;;;14.30;100.00
56070;BME280;41944;52.078;-0.058;2023-05-07T00:35:29;101097.40;;;14.48;100.00
56070;BME280;41944;52.078;-0.058;2023-05-07T00:37:56;101100.19;;;14.39;100.00
56070;BME280;41944;52.078;-0.058;2023-05-07T00:40:23;101097.11;;;14.39;100.00
56070;BME280;41944;52.078;-0.058;2023-05-07T00:42:50;101096.04;;;14.40;100.00
56070;BME280;41944;52.078;-0.058;2023-05-07T00:45:17;101097.92;;;14.34;100.00
56070;BME280;41944;52.078;-0.058;2023-05-07T00:47:44;101094.98;;;14.08;100.00
56070;BME280;41944;52.078;-0.058;2023-05-07T00:50:11;101094.79;;;13.98;100.00
56070;BME280;41944;52.078;-0.058;2023-05-07T00:52:39;101095.24;;;14.00;100.00
56070;BME280;41944;52.078;-0.058;2023-05-07T00:55:07;101106.56;;;13.83;100.00
56070;BME280;41944;52.078;-0.058;2023-05-07T00:57:36;101105.93;;;13.63;100.00
56070;BME280;41944;52.078;-0.058;2023-05-07T01:00:05;101104.62;;;13.42;100.00
56070;BME280;41944;52.078;-0.058;2023-05-07T01:02:32;101104.95;;;13.37;100.00
56070;BME280;41944;52.078;-0.058;2023-05-07T01:05:00;101103.95;;;13.20;100.00
56070;BME280;41944;52.078;-0.058;2023-05-07T01:07:27;101100.21;;;13.14;100.00
56070;BME280;41944;52.078;-0.058;2023-05-07T01:09:55;101101.68;;;13.07;100.00
56070;BME280;41944;52.078;-0.058;2023-05-07T01:12:23;101106.22;;;13.10;100.00
56070;BME280;41944;52.078;-0.058;2023-05-07T01:14:51;101107.39;;;13.16;100.00
56070;BME280;41944;52.078;-0.058;2023-05-07T01:17:18;101108.98;;;13.21;100.00
56070;BME280;41944;52.078;-0.058;2023-05-07T01:19:46;101112.47;;;13.21;100.00
56070;BME280;41944;52.078;-0.058;2023-05-07T01:22:15;101114.85;;;13.18;100.00
56070;BME280;41944;52.078;-0.058;2023-05-07T01:24:43;101118.33;;;13.19;100.00
56070;BME280;41944;52.078;-0.058;2023-05-07T01:27:10;101117.19;;;13.42;100.00
56070;BME280;41944;52.078;-0.058;2023-05-07T01:29:38;101119.50;;;13.41;100.00
56070;BME280;41944;52.078;-0.058;2023-05-07T01:32:05;101117.88;;;13.59;100.00
56070;BME280;41944;52.078;-0.058;2023-05-07T01:34:34;101113.62;;;13.53;100.00
56070;BME280;41944;52.078;-0.058;2023-05-07T01:37:03;101112.66;;;13.47;100.00
56070;BME280;41944;52.078;-0.058;2023-05-07T01:39:32;101113.31;;;13.52;100.00
56070;BME280;41944;52.078;-0.058;2023-05-07T01:41:59;101118.38;;;13.75;100.00
56070;BME280;41944;52.078;-0.058;2023-05-07T01:44:27;101119.49;;;13.85;100.00
56070;BME280;41944;52.078;-0.058;2023-05-07T01:46:54;101122.36;;;13.68;100.00
56070;BME280;41944;52.078;-0.058;2023-05-07T01:49:22;101127.54;;;13.69;100.00
56070;BME280;41944;52.078;-0.058;2023-05-07T01:51:49;101129.32;;;13.69;100.00
56070;BME280;41944;52.078;-0.058;2023-05-07T01:54:16;101129.94;;;13.71;100.00
56070;BME280;41944;52.078;-0.058;2023-05-07T01:56:43;101130.54;;;13.60;100.00
56070;BME280;41944;52.078;-0.058;2023-05-07T01:59:11;101134.20;;;13.65;100.00
56070;BME280;41944;52.078;-0.058;2023-05-07T02:01:38;101131.25;;;13.69;100.00
56070;BME280;41944;52.078;-0.058;2023-05-07T02:04:05;101131.58;;;13.84;100.00
56070;BME280;41944;52.078;-0.058;2023-05-07T02:06:32;101130.89;;;13.76;100.00
56070;BME280;41944;52.078;-0.058;2023-05-07T02:08:59;101129.58;;;13.72;100.00
56070;BME280;41944;52.078;-0.058;2023-05-07T02:11:27;101128.82;;;13.96;100.00
56070;BME280;41944;52.078;-0.058;2023-05-07T02:13:54;101120.50;;;14.15;100.00
56070;BME280;41944;52.078;-0.058;2023-05-07T02:16:21;101124.58;;;14.02;100.00
56070;BME280;41944;52.078;-0.058;2023-05-07T02:18:48;101125.85;;;14.00;100.00
56070;BME280;41944;52.078;-0.058;2023-05-07T02:21:16;101125.27;;;13.84;100.00
56070;BME280;41944;52.078;-0.058;2023-05-07T02:23:43;101130.14;;;13.83;100.00
56070;BME280;41944;52.078;-0.058;2023-05-07T02:26:10;101132.01;;;13.76;100.00
56070;BME280;41944;52.078;-0.058;2023-05-07T02:28:37;101135.09;;;13.81;100.00
56070;BME280;41944;52.078;-0.058;2023-05-07T02:31:05;101138.87;;;13.91;100.00
56070;BME280;41944;52.078;-0.058;2023-05-07T02:33:32;101142.06;;;13.81;100.00
56070;BME280;41944;52.078;-0.058;2023-05-07T02:36:06;101141.69;;;13.81;100.00
56070;BME280;41944;52.078;-0.058;2023-05-07T02:38:32;101144.68;;;13.83;100.00
56070;BME280;41944;52.078;-0.058;2023-05-07T02:41:00;101145.59;;;13.81;100.00
56070;BME280;41944;52.078;-0.058;2023-05-07T02:43:27;101140.57;;;13.75;100.00
56070;BME280;41944;52.078;-0.058;2023-05-07T02:46:01;101139.47;;;13.71;100.00
56070;BME280;41944;52.078;-0.058;2023-05-07T02:48:28;101143.34;;;13.80;100.00
56070;BME280;41944;52.078;-0.058;2023-05-07T02:50:56;101146.02;;;13.85;100.00
56070;BME280;41944;52.078;-0.058;2023-05-07T02:53:23;101145.36;;;13.76;100.00
56070;BME280;41944;52.078;-0.058;2023-05-07T02:55:50;101146.15;;;13.81;100.00
56070;BME280;41944;52.078;-0.058;2023-05-07T02:58:18;101141.50;;;13.82;100.00
56070;BME280;41944;52.078;-0.058;2023-05-07T03:00:45;101146.02;;;13.77;100.00
56070;BME280;41944;52.078;-0.058;2023-05-07T03:03:12;101150.03;;;13.84;100.00
56070;BME280;41944;52.078;-0.058;2023-05-07T03:05:39;101158.74;;;13.84;100.00
56070;BME280;41944;52.078;-0.058;2023-05-07T03:08:06;101160.68;;;13.76;100.00
56070;BME280;41944;52.078;-0.058;2023-05-07T03:10:34;101156.65;;;13.76;100.00
56070;BME280;41944;52.078;-0.058;2023-05-07T03:13:02;101156.08;;;13.90;100.00
56070;BME280;41944;52.078;-0.058;2023-05-07T03:15:30;101158.00;;;14.09;100.00
56070;BME280;41944;52.078;-0.058;2023-05-07T03:17:56;101161.76;;;14.01;100.00
56070;BME280;41944;52.078;-0.058;2023-05-07T03:20:23;101163.00;;;14.03;100.00
56070;BME280;41944;52.078;-0.058;2023-05-07T03:22:51;101160.61;;;13.99;100.00
56070;BME280;41944;52.078;-0.058;2023-05-07T03:25:18;101162.88;;;14.06;100.00
56070;BME280;41944;52.078;-0.058;2023-05-07T03:27:44;101156.25;;;14.03;100.00
56070;BME280;41944;52.078;-0.058;2023-05-07T03:30:12;101153.99;;;14.09;100.00
56070;BME280;41944;52.078;-0.058;2023-05-07T03:32:40;101151.13;;;14.18;100.00
56070;BME280;41944;52.078;-0.058;2023-05-07T03:35:07;101150.05;;;14.34;100.00
56070;BME280;41944;52.078;-0.058;2023-05-07T03:37:34;101151.37;;;14.41;100.00
56070;BME280;41944;52.078;-0.058;2023-05-07T03:40:01;101149.00;;;14.37;100.00
56070;BME280;41944;52.078;-0.058;2023-05-07T03:42:28;101151.76;;;14.33;100.00
56070;BME280;41944;52.078;-0.058;2023-05-07T03:44:55;101152.85;;;14.41;100.00
56070;BME280;41944;52.078;-0.058;2023-05-07T03:47:23;101153.04;;;14.44;100.00
56070;BME280;41944;52.078;-0.058;2023-05-07T03:49:50;101155.69;;;14.49;100.00
56070;BME280;41944;52.078;-0.058;2023-05-07T03:52:17;101159.07;;;14.58;100.00
56070;BME280;41944;52.078;-0.058;2023-05-07T03:54:44;101161.91;;;14.60;100.00
56070;BME280;41944;52.078;-0.058;2023-05-07T03:57:11;101162.22;;;14.62;100.00
56070;BME280;41944;52.078;-0.058;2023-05-07T03:59:37;101164.86;;;14.48;100.00
56070;BME280;41944;52.078;-0.058;2023-05-07T04:02:04;101165.83;;;14.38;100.00
56070;BME280;41944;52.078;-0.058;2023-05-07T04:04:31;101169.80;;;14.32;100.00
56070;BME280;41944;52.078;-0.058;2023-05-07T04:06:58;101173.82;;;14.32;100.00
56070;BME280;41944;52.078;-0.058;2023-05-07T04:09:25;101174.38;;;14.29;100.00
56070;BME280;41944;52.078;-0.058;2023-05-07T04:11:52;101168.02;;;14.43;100.00
56070;BME280;41944;52.078;-0.058;2023-05-07T04:14:19;101167.60;;;14.47;100.00
56070;BME280;41944;52.078;-0.058;2023-05-07T04:16:46;101171.48;;;14.39;100.00
56070;BME280;41944;52.078;-0.058;2023-05-07T04:19:14;101173.82;;;14.45;100.00
56070;BME280;41944;52.078;-0.058;2023-05-07T04:21:41;101181.50;;;14.33;100.00
56070;BME280;41944;52.078;-0.058;2023-05-07T04:24:08;101181.49;;;14.26;100.00
56070;BME280;41944;52.078;-0.058;2023-05-07T04:26:36;101177.95;;;14.07;100.00
56070;BME280;41944;52.078;-0.058;2023-05-07T04:29:03;101181.67;;;14.09;100.00
56070;BME280;41944;52.078;-0.058;2023-05-07T04:31:31;101187.67;;;14.08;100.00
56070;BME280;41944;52.078;-0.058;2023-05-07T04:33:57;101190.07;;;14.15;100.00
56070;BME280;41944;52.078;-0.058;2023-05-07T04:36:24;101191.18;;;14.09;100.00
56070;BME280;41944;52.078;-0.058;2023-05-07T04:38:51;101193.12;;;14.04;100.00
56070;BME280;41944;52.078;-0.058;2023-05-07T04:41:19;101196.35;;;14.05;100.00
56070;BME280;41944;52.078;-0.058;2023-05-07T04:43:46;101201.43;;;13.98;100.00
56070;BME280;41944;52.078;-0.058;2023-05-07T04:46:13;101203.82;;;13.96;100.00
56070;BME280;41944;52.078;-0.058;2023-05-07T04:48:40;101201.74;;;13.89;100.00
56070;BME280;41944;52.078;-0.058;2023-05-07T04:51:07;101207.28;;;13.86;100.00
56070;BME280;41944;52.078;-0.058;2023-05-07T04:53:34;101207.00;;;13.95;100.00
56070;BME280;41944;52.078;-0.058;2023-05-07T04:56:01;101209.96;;;13.84;100.00
56070;BME280;41944;52.078;-0.058;2023-05-07T04:58:28;101210.42;;;13.82;100.00
56070;BME280;41944;52.078;-0.058;2023-05-07T05:00:56;101207.54;;;13.86;100.00
56070;BME280;41944;52.078;-0.058;2023-05-07T05:03:23;101210.12;;;13.91;100.00
56070;BME280;41944;52.078;-0.058;2023-05-07T05:05:50;101209.06;;;13.92;100.00
56070;BME280;41944;52.078;-0.058;2023-05-07T05:08:17;101212.43;;;13.92;100.00
56070;BME280;41944;52.078;-0.058;2023-05-07T05:10:44;101211.26;;;13.87;100.00
56070;BME280;41944;52.078;-0.058;2023-05-07T05:13:12;101212.63;;;13.95;100.00
56070;BME280;41944;52.078;-0.058;2023-05-07T05:15:39;101215.40;;;14.00;100.00
56070;BME280;41944;52.078;-0.058;2023-05-07T05:18:06;101220.13;;;14.13;100.00
56070;BME280;41944;52.078;-0.058;2023-05-07T05:20:33;101220.67;;;14.14;100.00
56070;BME280;41944;52.078;-0.058;2023-05-07T05:22:59;101219.47;;;14.02;100.00
56070;BME280;41944;52.078;-0.058;2023-05-07T05:25:27;101221.49;;;14.00;100.00
56070;BME280;41944;52.078;-0.058;2023-05-07T05:27:54;101221.44;;;14.10;100.00
56070;BME280;41944;52.078;-0.058;2023-05-07T05:30:21;101221.03;;;14.17;100.00
56070;BME280;41944;52.078;-0.058;2023-05-07T05:32:48;101221.42;;;14.25;100.00
56070;BME280;41944;52.078;-0.058;2023-05-07T05:35:16;101220.00;;;14.30;100.00
56070;BME280;41944;52.078;-0.058;2023-05-07T05:37:43;101224.48;;;14.29;100.00
56070;BME280;41944;52.078;-0.058;2023-05-07T05:40:11;101225.53;;;14.30;100.00
56070;BME280;41944;52.078;-0.058;2023-05-07T05:42:39;101226.88;;;14.45;100.00
56070;BME280;41944;52.078;-0.058;2023-05-07T05:45:07;101226.15;;;14.54;100.00
56070;BME280;41944;52.078;-0.058;2023-05-07T05:47:35;101226.41;;;14.48;100.00
56070;BME280;41944;52.078;-0.058;2023-05-07T05:50:02;101227.87;;;14.51;100.00
56070;BME280;41944;52.078;-0.058;2023-05-07T05:52:29;101230.77;;;14.62;100.00
56070;BME280;41944;52.078;-0.058;2023-05-07T05:54:57;101230.49;;;14.65;100.00
56070;BME280;41944;52.078;-0.058;2023-05-07T05:57:24;101233.85;;;14.61;100.00
56070;BME280;41944;52.078;-0.058;2023-05-07T05:59:51;101236.00;;;14.70;100.00
56070;BME280;41944;52.078;-0.058;2023-05-07T06:02:17;101237.00;;;14.72;100.00
56070;BME280;41944;52.078;-0.058;2023-05-07T06:04:45;101232.95;;;14.82;100.00
56070;BME280;41944;52.078;-0.058;2023-05-07T06:07:12;101237.43;;;14.90;100.00
56070;BME280;41944;52.078;-0.058;2023-05-07T06:09:40;101240.96;;;15.01;100.00
56070;BME280;41944;52.078;-0.058;2023-05-07T06:12:06;101242.12;;;15.17;100.00
56070;BME280;41944;52.078;-0.058;2023-05-07T06:14:33;101239.57;;;15.15;100.00
56070;BME280;41944;52.078;-0.058;2023-05-07T06:17:01;101239.81;;;15.31;100.00
56070;BME280;41944;52.078;-0.058;2023-05-07T06:19:28;101237.84;;;15.35;100.00
56070;BME280;41944;52.078;-0.058;2023-05-07T06:21:55;101243.70;;;15.37;100.00
56070;BME280;41944;52.078;-0.058;2023-05-07T06:24:22;101252.97;;;15.42;100.00
56070;BME280;41944;52.078;-0.058;2023-05-07T06:26:48;101259.26;;;15.37;100.00
56070;BME280;41944;52.078;-0.058;2023-05-07T06:29:15;101265.13;;;15.49;100.00
56070;BME280;41944;52.078;-0.058;2023-05-07T06:31:43;101265.03;;;15.58;100.00
56070;BME280;41944;52.078;-0.058;2023-05-07T06:34:10;101265.59;;;15.53;100.00
56070;BME280;41944;52.078;-0.058;2023-05-07T06:36:37;101265.39;;;15.56;100.00
56070;BME280;41944;52.078;-0.058;2023-05-07T06:39:04;101264.27;;;15.60;100.00
56070;BME280;41944;52.078;-0.058;2023-05-07T06:41:32;101269.46;;;15.54;100.00
56070;BME280;41944;52.078;-0.058;2023-05-07T06:43:59;101269.14;;;15.66;100.00
56070;BME280;41944;52.078;-0.058;2023-05-07T06:46:27;101271.81;;;15.65;100.00
56070;BME280;41944;52.078;-0.058;2023-05-07T06:48:54;101274.64;;;15.85;100.00
56070;BME280;41944;52.078;-0.058;2023-05-07T06:51:21;101276.34;;;15.89;100.00
56070;BME280;41944;52.078;-0.058;2023-05-07T06:53:49;101276.14;;;15.93;100.00
56070;BME280;41944;52.078;-0.058;2023-05-07T06:56:16;101277.10;;;15.86;100.00
56070;BME280;41944;52.078;-0.058;2023-05-07T06:58:43;101276.91;;;15.85;100.00
56070;BME280;41944;52.078;-0.058;2023-05-07T07:01:10;101278.51;;;15.85;100.00
56070;BME280;41944;52.078;-0.058;2023-05-07T07:03:37;101278.83;;;15.85;100.00
56070;BME280;41944;52.078;-0.058;2023-05-07T07:06:04;101277.56;;;15.94;100.00
56070;BME280;41944;52.078;-0.058;2023-05-07T07:08:31;101279.45;;;15.89;100.00
56070;BME280;41944;52.078;-0.058;2023-05-07T07:10:59;101279.89;;;15.79;100.00
56070;BME280;41944;52.078;-0.058;2023-05-07T07:13:26;101281.18;;;15.81;100.00
56070;BME280;41944;52.078;-0.058;2023-05-07T07:15:54;101283.69;;;15.82;100.00
56070;BME280;41944;52.078;-0.058;2023-05-07T07:18:20;101284.13;;;15.99;100.00
56070;BME280;41944;52.078;-0.058;2023-05-07T07:20:48;101281.44;;;16.09;100.00
56070;BME280;41944;52.078;-0.058;2023-05-07T07:23:15;101279.08;;;16.13;100.00
56070;BME280;41944;52.078;-0.058;2023-05-07T07:25:42;101277.49;;;16.23;100.00
56070;BME280;41944;52.078;-0.058;2023-05-07T07:28:09;101279.42;;;16.32;100.00
56070;BME280;41944;52.078;-0.058;2023-05-07T07:30:36;101282.32;;;16.35;100.00
56070;BME280;41944;52.078;-0.058;2023-05-07T07:33:03;101285.33;;;16.37;100.00
56070;BME280;41944;52.078;-0.058;2023-05-07T07:35:31;101287.57;;;16.51;100.00
56070;BME280;41944;52.078;-0.058;2023-05-07T07:37:58;101289.82;;;16.66;100.00
56070;BME280;41944;52.078;-0.058;2023-05-07T07:40:25;101295.40;;;16.85;100.00
56070;BME280;41944;52.078;-0.058;2023-05-07T07:42:53;101296.22;;;16.84;100.00
56070;BME280;41944;52.078;-0.058;2023-05-07T07:45:20;101297.25;;;16.91;100.00
56070;BME280;41944;52.078;-0.058;2023-05-07T07:47:48;101300.18;;;16.77;100.00
56070;BME280;41944;52.078;-0.058;2023-05-07T07:50:15;101300.25;;;16.89;100.00
56070;BME280;41944;52.078;-0.058;2023-05-07T07:52:42;101301.22;;;16.99;100.00
56070;BME280;41944;52.078;-0.058;2023-05-07T07:55:10;101302.18;;;17.15;100.00
56070;BME280;41944;52.078;-0.058;2023-05-07T07:57:37;101301.06;;;17.31;100.00
56070;BME280;41944;52.078;-0.058;2023-05-07T08:00:06;101297.15;;;17.30;100.00
56070;BME280;41944;52.078;-0.058;2023-05-07T08:02:33;101299.12;;;17.39;100.00
56070;BME280;41944;52.078;-0.058;2023-05-07T08:05:00;101302.34;;;17.42;99.34
56070;BME280;41944;52.078;-0.058;2023-05-07T08:07:28;101300.06;;;17.36;100.00
56070;BME280;41944;52.078;-0.058;2023-05-07T08:09:56;101302.03;;;17.25;100.00
56070;BME280;41944;52.078;-0.058;2023-05-07T08:12:23;101305.00;;;17.43;100.00
56070;BME280;41944;52.078;-0.058;2023-05-07T08:14:51;101306.55;;;17.52;100.00
56070;BME280;41944;52.078;-0.058;2023-05-07T08:17:18;101308.40;;;17.69;100.00
56070;BME280;41944;52.078;-0.058;2023-05-07T08:19:45;101310.54;;;18.09;98.96
56070;BME280;41944;52.078;-0.058;2023-05-07T08:22:13;101317.92;;;18.46;94.00
56070;BME280;41944;52.078;-0.058;2023-05-07T08:24:40;101317.70;;;18.49;92.72
56070;BME280;41944;52.078;-0.058;2023-05-07T08:27:07;101317.17;;;18.57;94.46
56070;BME280;41944;52.078;-0.058;2023-05-07T08:29:34;101321.99;;;18.71;93.18
56070;BME280;41944;52.078;-0.058;2023-05-07T08:32:01;101324.39;;;18.83;90.21
56070;BME280;41944;52.078;-0.058;2023-05-07T08:34:28;101330.79;;;18.82;93.47
56070;BME280;41944;52.078;-0.058;2023-05-07T08:36:56;101335.12;;;19.04;90.15
56070;BME280;41944;52.078;-0.058;2023-05-07T08:39:23;101343.45;;;19.12;89.94
56070;BME280;41944;52.078;-0.058;2023-05-07T08:41:52;101343.04;;;18.87;87.79
56070;BME280;41944;52.078;-0.058;2023-05-07T08:44:22;101343.41;;;18.73;86.93
56070;BME280;41944;52.078;-0.058;2023-05-07T08:46:53;101339.80;;;18.74;88.49
56070;BME280;41944;52.078;-0.058;2023-05-07T08:49:28;101342.54;;;18.74;89.26
56070;BME280;41944;52.078;-0.058;2023-05-07T08:51:55;101344.16;;;18.84;89.80
56070;BME280;41944;52.078;-0.058;2023-05-07T08:54:23;101340.83;;;18.94;87.47
56070;BME280;41944;52.078;-0.058;2023-05-07T08:56:50;101343.85;;;19.02;85.92
56070;BME280;41944;52.078;-0.058;2023-05-07T08:59:17;101344.16;;;19.02;88.90
56070;BME280;41944;52.078;-0.058;2023-05-07T09:01:44;101346.62;;;19.21;84.97
56070;BME280;41944;52.078;-0.058;2023-05-07T09:04:11;101350.96;;;19.07;85.85
56070;BME280;41944;52.078;-0.058;2023-05-07T09:06:38;101353.83;;;19.14;86.70
56070;BME280;41944;52.078;-0.058;2023-05-07T09:09:05;101357.47;;;19.26;87.09
56070;BME280;41944;52.078;-0.058;2023-05-07T09:11:33;101358.68;;;19.33;86.26
56070;BME280;41944;52.078;-0.058;2023-05-07T09:14:00;101359.25;;;19.51;82.41
56070;BME280;41944;52.078;-0.058;2023-05-07T09:16:29;101355.33;;;19.61;83.81
56070;BME280;41944;52.078;-0.058;2023-05-07T09:18:58;101358.50;;;19.47;83.46
56070;BME280;41944;52.078;-0.058;2023-05-07T09:21:25;101362.41;;;19.47;84.08
56070;BME280;41944;52.078;-0.058;2023-05-07T09:23:55;101360.57;;;19.72;81.49
56070;BME280;41944;52.078;-0.058;2023-05-07T09:26:23;101365.38;;;20.00;81.48
56070;BME280;41944;52.078;-0.058;2023-05-07T09:28:51;101361.53;;;19.98;77.94
56070;BME280;41944;52.078;-0.058;2023-05-07T09:31:18;101362.30;;;19.74;81.50
56070;BME280;41944;52.078;-0.058;2023-05-07T09:33:45;101372.12;;;19.59;81.60
56070;BME280;41944;52.078;-0.058;2023-05-07T09:36:14;101377.55;;;19.47;81.70
56070;BME280;41944;52.078;-0.058;2023-05-07T09:38:41;101381.55;;;19.37;84.37
56070;BME280;41944;52.078;-0.058;2023-05-07T09:41:10;101379.18;;;19.58;82.10
56070;BME280;41944;52.078;-0.058;2023-05-07T09:43:39;101374.66;;;19.82;82.88
56070;BME280;41944;52.078;-0.058;2023-05-07T09:46:07;101380.33;;;20.08;81.08
56070;BME280;41944;52.078;-0.058;2023-05-07T09:48:37;101379.76;;;20.36;79.99
56070;BME280;41944;52.078;-0.058;2023-05-07T09:51:09;101386.13;;;20.44;77.68
56070;BME280;41944;52.078;-0.058;2023-05-07T09:53:39;101382.28;;;20.66;77.40
56070;BME280;41944;52.078;-0.058;2023-05-07T09:56:07;101383.96;;;20.84;76.56
56070;BME280;41944;52.078;-0.058;2023-05-07T09:58:37;101379.60;;;21.06;73.08
56070;BME280;41944;52.078;-0.058;2023-05-07T10:01:04;101381.25;;;20.97;73.93
56070;BME280;41944;52.078;-0.058;2023-05-07T10:03:32;101383.56;;;21.01;75.32
56070;BME280;41944;52.078;-0.058;2023-05-07T10:06:00;101384.66;;;21.08;75.59
56070;BME280;41944;52.078;-0.058;2023-05-07T10:08:27;101386.68;;;21.36;71.17
56070;BME280;41944;52.078;-0.058;2023-05-07T10:10:55;101387.94;;;21.11;70.62
56070;BME280;41944;52.078;-0.058;2023-05-07T10:13:23;101389.18;;;21.16;72.97
56070;BME280;41944;52.078;-0.058;2023-05-07T10:15:50;101394.74;;;21.33;72.80
56070;BME280;41944;52.078;-0.058;2023-05-07T10:18:18;101400.45;;;21.46;71.96
56070;BME280;41944;52.078;-0.058;2023-05-07T10:20:47;101401.22;;;21.50;70.01
56070;BME280;41944;52.078;-0.058;2023-05-07T10:23:19;101410.60;;;21.64;69.81
56070;BME280;41944;52.078;-0.058;2023-05-07T10:25:50;101411.55;;;21.64;70.70
56070;BME280;41944;52.078;-0.058;2023-05-07T10:28:18;101411.40;;;21.83;69.62
56070;BME280;41944;52.078;-0.058;2023-05-07T10:30:57;101414.72;;;21.94;70.07
56070;BME280;41944;52.078;-0.058;2023-05-07T10:33:27;101413.85;;;22.24;69.18
56070;BME280;41944;52.078;-0.058;2023-05-07T10:35:58;101415.80;;;22.48;68.06
56070;BME280;41944;52.078;-0.058;2023-05-07T10:38:27;101418.85;;;22.71;64.39
56070;BME280;41944;52.078;-0.058;2023-05-07T10:40:54;101417.19;;;22.74;64.98
56070;BME280;41944;52.078;-0.058;2023-05-07T10:43:22;101418.04;;;22.67;66.99
56070;BME280;41944;52.078;-0.058;2023-05-07T10:46:10;101418.57;;;22.84;64.79
56070;BME280;41944;52.078;-0.058;2023-05-07T10:49:06;101423.10;;;22.69;64.52
56070;BME280;41944;52.078;-0.058;2023-05-07T10:51:34;101428.54;;;22.79;63.27
56070;BME280;41944;52.078;-0.058;2023-05-07T10:54:21;101434.07;;;22.63;67.47
56070;BME280;41944;52.078;-0.058;2023-05-07T10:56:49;101435.14;;;22.44;66.00
56070;BME280;41944;52.078;-0.058;2023-05-07T10:59:34;101435.31;;;22.58;65.82
56070;BME280;41944;52.078;-0.058;2023-05-07T11:02:03;101434.17;;;22.59;62.09
56070;BME280;41944;52.078;-0.058;2023-05-07T11:04:30;101437.36;;;22.64;61.48
56070;BME280;41944;52.078;-0.058;2023-05-07T11:07:30;101439.07;;;22.31;64.03
56070;BME280;41944;52.078;-0.058;2023-05-07T11:10:02;101447.90;;;21.92;64.86
56070;BME280;41944;52.078;-0.058;2023-05-07T11:13:02;101455.37;;;21.80;66.84
56070;BME280;41944;52.078;-0.058;2023-05-07T11:15:40;101461.98;;;21.66;66.77
56070;BME280;41944;52.078;-0.058;2023-05-07T11:18:07;101465.19;;;21.56;67.62
56070;BME280;41944;52.078;-0.058;2023-05-07T11:20:53;101464.15;;;21.50;68.63
56070;BME280;41944;52.078;-0.058;2023-05-07T11:23:58;101466.30;;;21.59;68.43
56070;BME280;41944;52.078;-0.058;2023-05-07T11:26:25;101462.62;;;21.69;66.40
56070;BME280;41944;52.078;-0.058;2023-05-07T11:28:52;101464.56;;;21.65;67.86
56070;BME280;41944;52.078;-0.058;2023-05-07T11:31:23;101467.00;;;21.73;66.54
56070;BME280;41944;52.078;-0.058;2023-05-07T11:33:52;101466.45;;;21.87;66.21
56070;BME280;41944;52.078;-0.058;2023-05-07T11:36:20;101470.60;;;21.94;65.81
56070;BME280;41944;52.078;-0.058;2023-05-07T11:38:47;101474.60;;;22.08;64.23
56070;BME280;41944;52.078;-0.058;2023-05-07T11:41:16;101476.44;;;21.99;64.84
56070;BME280;41944;52.078;-0.058;2023-05-07T11:43:59;101480.68;;;22.26;65.03
56070;BME280;41944;52.078;-0.058;2023-05-07T11:46:27;101479.91;;;22.43;63.41
56070;BME280;41944;52.078;-0.058;2023-05-07T11:48:54;101476.89;;;22.41;61.68
56070;BME280;41944;52.078;-0.058;2023-05-07T11:51:23;101477.06;;;22.40;61.18
56070;BME280;41944;52.078;-0.058;2023-05-07T11:53:50;101478.64;;;22.03;63.72
56070;BME280;41944;52.078;-0.058;2023-05-07T11:56:18;101483.97;;;21.93;65.32
56070;BME280;41944;52.078;-0.058;2023-05-07T11:58:47;101485.69;;;22.12;63.02
56070;BME280;41944;52.078;-0.058;2023-05-07T12:01:15;101487.42;;;21.92;64.52
56070;BME280;41944;52.078;-0.058;2023-05-07T12:03:43;101486.56;;;22.08;62.73
56070;BME280;41944;52.078;-0.058;2023-05-07T12:06:12;101487.44;;;22.23;61.50
56070;BME280;41944;52.078;-0.058;2023-05-07T12:08:41;101489.46;;;22.10;61.58
56070;BME280;41944;52.078;-0.058;2023-05-07T12:11:09;101489.10;;;22.23;60.75
56070;BME280;41944;52.078;-0.058;2023-05-07T12:13:37;101486.11;;;22.09;61.29
56070;BME280;41944;52.078;-0.058;2023-05-07T12:16:06;101481.38;;;22.14;61.67
56070;BME280;41944;52.078;-0.058;2023-05-07T12:18:35;101478.82;;;22.31;60.47
56070;BME280;41944;52.078;-0.058;2023-05-07T12:21:02;101481.36;;;22.35;61.44
56070;BME280;41944;52.078;-0.058;2023-05-07T12:23:30;101482.48;;;22.45;61.21
56070;BME280;41944;52.078;-0.058;2023-05-07T12:25:57;101483.14;;;22.43;60.01
56070;BME280;41944;52.078;-0.058;2023-05-07T12:28:26;101479.54;;;22.47;58.51
56070;BME280;41944;52.078;-0.058;2023-05-07T12:30:52;101478.88;;;22.37;60.03
56070;BME280;41944;52.078;-0.058;2023-05-07T12:33:24;101476.54;;;22.56;59.36
56070;BME280;41944;52.078;-0.058;2023-05-07T12:35:53;101478.97;;;22.69;60.13
56070;BME280;41944;52.078;-0.058;2023-05-07T12:38:21;101483.02;;;22.80;60.72